sensor_id;sensor_type;location;lat;lon;timestamp;pressure;altitude;pressure_sealevel;temperature;humidity
21988;BME280;11158;53.404;-1.510;2023-02-28T00:00:18;102464.75;;;6.36;73.37
21988;BME280;11158;53.404;-1.510;2023-02-28T00:02:45;102460.50;;;7.33;71.91
21988;BME280;11158;53.404;-1.510;2023-02-28T00:05:12;102463.69;;;6.64;72.50
21988;BME280;11158;53.404;-1.510;2023-02-28T00:07:39;102475.09;;;6.90;72.67
21988;BME280;11158;53.404;-1.510;2023-02-28T00:10:07;102473.06;;;7.31;71.06
21988;BME280;11158;53.404;-1.510;2023-02-28T00:12:34;102471.50;;;7.28;70.41
21988;BME280;11158;53.404;-1.510;2023-02-28T00:15:01;102471.31;;;7.43;70.76
21988;BME280;11158;53.404;-1.510;2023-02-28T00:17:27;102466.44;;;7.37;70.25
21988;BME280;11158;53.404;-1.510;2023-02-28T00:19:52;102469.53;;;7.30;71.33
21988;BME280;11158;53.404;-1.510;2023-02-28T00:22:19;102477.44;;;7.56;69.90
21988;BME280;11158;53.404;-1.510;2023-02-28T00:24:46;102471.34;;;7.06;71.40
21988;BME280;11158;53.404;-1.510;2023-02-28T00:27:13;102470.78;;;7.13;71.04
21988;BME280;11158;53.404;-1.510;2023-02-28T00:29:40;102480.44;;;6.90;71.91
21988;BME280;11158;53.404;-1.510;2023-02-28T00:32:06;102479.13;;;7.33;71.82
21988;BME280;11158;53.404;-1.510;2023-02-28T00:34:32;102485.81;;;7.39;70.43
21988;BME280;11158;53.404;-1.510;2023-02-28T00:37:07;102485.19;;;7.94;69.69
21988;BME280;11158;53.404;-1.510;2023-02-28T00:39:36;102482.06;;;8.70;67.74
21988;BME280;11158;53.404;-1.510;2023-02-28T00:42:03;102485.22;;;8.41;66.93
21988;BME280;11158;53.404;-1.510;2023-02-28T00:44:29;102490.03;;;7.89;69.43
21988;BME280;11158;53.404;-1.510;2023-02-28T00:46:55;102488.56;;;8.32;68.09
21988;BME280;11158;53.404;-1.510;2023-02-28T00:49:22;102484.25;;;6.99;71.56
21988;BME280;11158;53.404;-1.510;2023-02-28T00:51:47;102489.81;;;7.44;70.59
21988;BME280;11158;53.404;-1.510;2023-02-28T00:54:14;102491.25;;;7.96;68.71
21988;BME280;11158;53.404;-1.510;2023-02-28T00:56:39;102490.56;;;7.46;69.82
21988;BME280;11158;53.404;-1.510;2023-02-28T00:59:05;102484.66;;;8.36;66.79
21988;BME280;11158;53.404;-1.510;2023-02-28T01:01:31;102492.25;;;7.23;70.22
21988;BME280;11158;53.404;-1.510;2023-02-28T01:03:56;102490.81;;;7.30;71.21
21988;BME280;11158;53.404;-1.510;2023-02-28T01:06:22;102486.19;;;8.05;68.06
21988;BME280;11158;53.404;-1.510;2023-02-28T01:08:48;102483.03;;;8.00;67.81
21988;BME280;11158;53.404;-1.510;2023-02-28T01:11:16;102484.69;;;8.25;67.83
21988;BME280;11158;53.404;-1.510;2023-02-28T01:13:43;102483.75;;;7.66;68.37
21988;BME280;11158;53.404;-1.510;2023-02-28T01:16:09;102487.84;;;7.59;68.59
21988;BME280;11158;53.404;-1.510;2023-02-28T01:18:35;102485.59;;;8.12;67.36
21988;BME280;11158;53.404;-1.510;2023-02-28T01:21:10;102489.38;;;8.21;66.34
21988;BME280;11158;53.404;-1.510;2023-02-28T01:23:36;102486.16;;;7.34;69.40
21988;BME280;11158;53.404;-1.510;2023-02-28T01:26:13;102481.19;;;7.17;70.10
21988;BME280;11158;53.404;-1.510;2023-02-28T01:28:39;102493.44;;;7.43;69.04
21988;BME280;11158;53.404;-1.510;2023-02-28T01:31:13;102480.34;;;7.64;68.18
21988;BME280;11158;53.404;-1.510;2023-02-28T01:33:38;102486.59;;;8.11;67.98
21988;BME280;11158;53.404;-1.510;2023-02-28T01:36:07;102491.97;;;8.34;65.16
21988;BME280;11158;53.404;-1.510;2023-02-28T01:38:33;102486.19;;;8.63;65.11
21988;BME280;11158;53.404;-1.510;2023-02-28T01:40:59;102490.34;;;8.31;66.10
21988;BME280;11158;53.404;-1.510;2023-02-28T01:43:31;102477.06;;;7.85;66.76
21988;BME280;11158;53.404;-1.510;2023-02-28T01:45:58;102482.00;;;8.13;66.87
21988;BME280;11158;53.404;-1.510;2023-02-28T01:48:32;102476.72;;;8.58;64.74
21988;BME280;11158;53.404;-1.510;2023-02-28T01:51:05;102476.59;;;7.91;67.27
21988;BME280;11158;53.404;-1.510;2023-02-28T01:53:34;102472.22;;;7.90;66.79
21988;BME280;11158;53.404;-1.510;2023-02-28T01:56:04;102471.66;;;8.78;64.91
21988;BME280;11158;53.404;-1.510;2023-02-28T01:58:31;102485.16;;;8.30;65.23
21988;BME280;11158;53.404;-1.510;2023-02-28T02:00:57;102486.31;;;8.03;66.91
21988;BME280;11158;53.404;-1.510;2023-02-28T02:03:23;102475.13;;;7.51;67.84
21988;BME280;11158;53.404;-1.510;2023-02-28T02:05:49;102478.88;;;7.84;67.83
21988;BME280;11158;53.404;-1.510;2023-02-28T02:08:19;102464.06;;;8.15;66.26
21988;BME280;11158;53.404;-1.510;2023-02-28T02:10:50;102466.22;;;8.68;64.76
21988;BME280;11158;53.404;-1.510;2023-02-28T02:19:01;102467.97;;;9.01;63.33
21988;BME280;11158;53.404;-1.510;2023-02-28T02:37:36;102468.41;;;9.29;63.38
21988;BME280;11158;53.404;-1.510;2023-02-28T02:43:36;102476.44;;;8.28;64.86
21988;BME280;11158;53.404;-1.510;2023-02-28T02:46:19;102475.06;;;8.69;64.23
21988;BME280;11158;53.404;-1.510;2023-02-28T02:48:46;102468.25;;;8.98;63.06
21988;BME280;11158;53.404;-1.510;2023-02-28T02:51:16;102470.66;;;8.90;63.06
21988;BME280;11158;53.404;-1.510;2023-02-28T02:53:47;102472.59;;;8.66;63.57
21988;BME280;11158;53.404;-1.510;2023-02-28T02:56:17;102474.78;;;8.83;64.29
21988;BME280;11158;53.404;-1.510;2023-02-28T02:58:47;102466.31;;;8.44;64.54
21988;BME280;11158;53.404;-1.510;2023-02-28T03:01:18;102470.75;;;7.26;69.72
21988;BME280;11158;53.404;-1.510;2023-02-28T03:04:07;102470.19;;;8.74;65.76
21988;BME280;11158;53.404;-1.510;2023-02-28T03:06:33;102472.22;;;7.90;67.57
21988;BME280;11158;53.404;-1.510;2023-02-28T03:09:00;102471.22;;;7.80;67.97
21988;BME280;11158;53.404;-1.510;2023-02-28T03:11:27;102477.13;;;8.07;66.52
21988;BME280;11158;53.404;-1.510;2023-02-28T03:25:08;102470.84;;;7.49;68.71
21988;BME280;11158;53.404;-1.510;2023-02-28T03:27:41;102468.50;;;8.73;66.14
21988;BME280;11158;53.404;-1.510;2023-02-28T03:33:16;102465.69;;;8.63;66.47
21988;BME280;11158;53.404;-1.510;2023-02-28T03:35:51;102475.63;;;7.92;68.70
21988;BME280;11158;53.404;-1.510;2023-02-28T03:38:22;102467.78;;;8.93;65.51
21988;BME280;11158;53.404;-1.510;2023-02-28T03:40:55;102465.47;;;8.55;65.88
21988;BME280;11158;53.404;-1.510;2023-02-28T03:43:27;102468.38;;;8.52;67.02
21988;BME280;11158;53.404;-1.510;2023-02-28T03:45:55;102471.34;;;8.36;67.11
21988;BME280;11158;53.404;-1.510;2023-02-28T03:48:31;102470.84;;;8.19;67.60
21988;BME280;11158;53.404;-1.510;2023-02-28T03:51:02;102470.38;;;8.26;67.60
21988;BME280;11158;53.404;-1.510;2023-02-28T03:53:37;102469.72;;;8.80;65.11
21988;BME280;11158;53.404;-1.510;2023-02-28T03:58:41;102470.75;;;8.32;65.92
21988;BME280;11158;53.404;-1.510;2023-02-28T04:03:38;102465.69;;;7.94;69.17
21988;BME280;11158;53.404;-1.510;2023-02-28T04:06:15;102461.59;;;8.01;68.78
21988;BME280;11158;53.404;-1.510;2023-02-28T04:08:41;102459.81;;;6.81;72.66
21988;BME280;11158;53.404;-1.510;2023-02-28T04:13:40;102459.84;;;7.78;69.46
21988;BME280;11158;53.404;-1.510;2023-02-28T04:16:09;102463.44;;;7.17;71.68
21988;BME280;11158;53.404;-1.510;2023-02-28T04:18:39;102463.50;;;7.52;69.66
21988;BME280;11158;53.404;-1.510;2023-02-28T04:21:05;102460.72;;;8.58;67.12
21988;BME280;11158;53.404;-1.510;2023-02-28T04:23:31;102472.50;;;8.78;66.19
21988;BME280;11158;53.404;-1.510;2023-02-28T04:25:57;102482.50;;;8.30;68.78
21988;BME280;11158;53.404;-1.510;2023-02-28T04:28:22;102480.81;;;7.58;70.01
21988;BME280;11158;53.404;-1.510;2023-02-28T04:30:54;102479.22;;;7.80;69.96
21988;BME280;11158;53.404;-1.510;2023-02-28T04:33:20;102473.66;;;8.18;67.53
21988;BME280;11158;53.404;-1.510;2023-02-28T04:35:46;102469.91;;;8.32;67.37
21988;BME280;11158;53.404;-1.510;2023-02-28T04:38:11;102469.88;;;8.21;67.74
21988;BME280;11158;53.404;-1.510;2023-02-28T04:40:37;102478.19;;;8.63;65.79
21988;BME280;11158;53.404;-1.510;2023-02-28T04:43:02;102479.13;;;8.84;65.18
21988;BME280;11158;53.404;-1.510;2023-02-28T04:45:29;102476.25;;;8.65;65.82
21988;BME280;11158;53.404;-1.510;2023-02-28T04:47:57;102473.59;;;9.74;63.58
21988;BME280;11158;53.404;-1.510;2023-02-28T04:50:23;102475.97;;;9.13;64.09
21988;BME280;11158;53.404;-1.510;2023-02-28T04:52:49;102478.44;;;8.93;64.16
21988;BME280;11158;53.404;-1.510;2023-02-28T04:55:15;102477.41;;;9.28;64.32
21988;BME280;11158;53.404;-1.510;2023-02-28T04:57:40;102475.22;;;9.22;63.93
21988;BME280;11158;53.404;-1.510;2023-02-28T05:00:09;102482.50;;;9.09;64.31
21988;BME280;11158;53.404;-1.510;2023-02-28T05:02:37;102477.66;;;9.14;64.53
21988;BME280;11158;53.404;-1.510;2023-02-28T05:05:04;102470.94;;;9.42;63.00
21988;BME280;11158;53.404;-1.510;2023-02-28T05:07:30;102469.59;;;8.48;65.47
21988;BME280;11158;53.404;-1.510;2023-02-28T05:09:55;102480.38;;;8.80;65.82
21988;BME280;11158;53.404;-1.510;2023-02-28T05:12:21;102473.94;;;9.05;64.85
21988;BME280;11158;53.404;-1.510;2023-02-28T05:14:46;102478.16;;;9.08;64.58
21988;BME280;11158;53.404;-1.510;2023-02-28T05:17:12;102486.81;;;8.77;66.29
21988;BME280;11158;53.404;-1.510;2023-02-28T05:19:37;102485.91;;;7.61;69.83
21988;BME280;11158;53.404;-1.510;2023-02-28T05:22:03;102481.75;;;8.16;67.11
21988;BME280;11158;53.404;-1.510;2023-02-28T05:24:29;102478.81;;;7.38;70.62
21988;BME280;11158;53.404;-1.510;2023-02-28T05:26:55;102484.47;;;8.04;68.78
21988;BME280;11158;53.404;-1.510;2023-02-28T05:29:21;102479.56;;;8.22;68.85
21988;BME280;11158;53.404;-1.510;2023-02-28T05:31:47;102482.47;;;8.18;67.43
21988;BME280;11158;53.404;-1.510;2023-02-28T05:34:13;102484.06;;;8.32;69.14
21988;BME280;11158;53.404;-1.510;2023-02-28T05:36:41;102483.66;;;8.03;69.43
21988;BME280;11158;53.404;-1.510;2023-02-28T05:39:07;102487.78;;;8.07;69.05
21988;BME280;11158;53.404;-1.510;2023-02-28T05:41:39;102483.41;;;8.64;66.80
21988;BME280;11158;53.404;-1.510;2023-02-28T05:44:04;102486.66;;;8.45;68.70
21988;BME280;11158;53.404;-1.510;2023-02-28T05:46:30;102491.34;;;8.30;68.42
21988;BME280;11158;53.404;-1.510;2023-02-28T05:48:55;102488.47;;;8.45;67.00
21988;BME280;11158;53.404;-1.510;2023-02-28T05:51:23;102477.22;;;8.75;66.43
21988;BME280;11158;53.404;-1.510;2023-02-28T05:53:48;102477.44;;;8.94;65.19
21988;BME280;11158;53.404;-1.510;2023-02-28T05:56:14;102484.25;;;8.98;64.80
21988;BME280;11158;53.404;-1.510;2023-02-28T05:58:40;102485.47;;;8.94;65.53
21988;BME280;11158;53.404;-1.510;2023-02-28T06:01:26;102489.19;;;7.65;69.24
21988;BME280;11158;53.404;-1.510;2023-02-28T06:03:55;102487.31;;;8.13;68.02
21988;BME280;11158;53.404;-1.510;2023-02-28T06:06:21;102479.22;;;8.37;67.06
21988;BME280;11158;53.404;-1.510;2023-02-28T06:08:46;102493.63;;;7.53;70.52
21988;BME280;11158;53.404;-1.510;2023-02-28T06:11:12;102480.00;;;7.69;69.69
21988;BME280;11158;53.404;-1.510;2023-02-28T06:13:38;102489.25;;;8.11;68.82
21988;BME280;11158;53.404;-1.510;2023-02-28T06:16:04;102485.25;;;7.70;70.16
21988;BME280;11158;53.404;-1.510;2023-02-28T06:18:30;102483.13;;;7.63;70.61
21988;BME280;11158;53.404;-1.510;2023-02-28T06:20:55;102489.03;;;7.79;69.89
21988;BME280;11158;53.404;-1.510;2023-02-28T06:23:21;102486.00;;;8.30;67.87
21988;BME280;11158;53.404;-1.510;2023-02-28T06:25:47;102493.72;;;8.11;68.94
21988;BME280;11158;53.404;-1.510;2023-02-28T06:28:13;102485.38;;;7.80;68.97
21988;BME280;11158;53.404;-1.510;2023-02-28T06:30:38;102484.06;;;8.21;67.27
21988;BME280;11158;53.404;-1.510;2023-02-28T06:33:04;102483.03;;;8.46;66.56
21988;BME280;11158;53.404;-1.510;2023-02-28T06:35:30;102495.31;;;7.30;70.99
21988;BME280;11158;53.404;-1.510;2023-02-28T06:37:56;102490.06;;;8.01;70.76
21988;BME280;11158;53.404;-1.510;2023-02-28T06:40:21;102497.78;;;9.07;66.86
21988;BME280;11158;53.404;-1.510;2023-02-28T06:42:47;102493.97;;;7.72;69.37
21988;BME280;11158;53.404;-1.510;2023-02-28T06:45:13;102496.16;;;7.79;70.68
21988;BME280;11158;53.404;-1.510;2023-02-28T06:47:39;102492.13;;;8.55;66.97
21988;BME280;11158;53.404;-1.510;2023-02-28T06:50:06;102510.06;;;8.17;68.63
21988;BME280;11158;53.404;-1.510;2023-02-28T06:52:32;102505.13;;;8.24;68.00
21988;BME280;11158;53.404;-1.510;2023-02-28T06:55:01;102504.63;;;8.54;67.38
21988;BME280;11158;53.404;-1.510;2023-02-28T06:57:31;102509.94;;;8.66;64.62
21988;BME280;11158;53.404;-1.510;2023-02-28T06:59:58;102503.63;;;8.55;66.06
21988;BME280;11158;53.404;-1.510;2023-02-28T07:02:24;102505.22;;;8.11;65.84
21988;BME280;11158;53.404;-1.510;2023-02-28T07:04:50;102503.91;;;7.82;68.64
21988;BME280;11158;53.404;-1.510;2023-02-28T07:07:15;102512.84;;;8.05;67.43
21988;BME280;11158;53.404;-1.510;2023-02-28T07:09:41;102515.25;;;8.08;67.44
21988;BME280;11158;53.404;-1.510;2023-02-28T07:12:06;102510.63;;;8.45;66.16
21988;BME280;11158;53.404;-1.510;2023-02-28T07:14:32;102514.44;;;8.99;64.53
21988;BME280;11158;53.404;-1.510;2023-02-28T07:16:57;102517.19;;;9.09;63.38
21988;BME280;11158;53.404;-1.510;2023-02-28T07:19:23;102518.31;;;8.84;64.13
21988;BME280;11158;53.404;-1.510;2023-02-28T07:21:49;102521.75;;;8.39;65.06
21988;BME280;11158;53.404;-1.510;2023-02-28T07:24:14;102528.00;;;8.62;65.25
21988;BME280;11158;53.404;-1.510;2023-02-28T07:26:41;102530.31;;;8.31;65.33
21988;BME280;11158;53.404;-1.510;2023-02-28T07:29:07;102532.22;;;7.83;67.80
21988;BME280;11158;53.404;-1.510;2023-02-28T07:31:32;102528.59;;;8.77;65.07
21988;BME280;11158;53.404;-1.510;2023-02-28T07:33:58;102534.44;;;7.89;67.34
21988;BME280;11158;53.404;-1.510;2023-02-28T07:36:23;102533.06;;;8.43;65.97
21988;BME280;11158;53.404;-1.510;2023-02-28T07:38:49;102532.38;;;8.16;67.61
21988;BME280;11158;53.404;-1.510;2023-02-28T07:41:21;102531.84;;;8.47;64.32
21988;BME280;11158;53.404;-1.510;2023-02-28T07:43:47;102537.19;;;8.58;65.44
21988;BME280;11158;53.404;-1.510;2023-02-28T07:46:14;102527.66;;;8.31;65.55
21988;BME280;11158;53.404;-1.510;2023-02-28T07:48:40;102532.28;;;7.94;65.47
21988;BME280;11158;53.404;-1.510;2023-02-28T07:51:06;102536.03;;;8.38;65.80
21988;BME280;11158;53.404;-1.510;2023-02-28T07:53:32;102530.34;;;7.96;67.08
21988;BME280;11158;53.404;-1.510;2023-02-28T07:55:59;102541.56;;;8.81;63.96
21988;BME280;11158;53.404;-1.510;2023-02-28T07:58:26;102537.44;;;8.55;64.34
21988;BME280;11158;53.404;-1.510;2023-02-28T08:00:52;102535.88;;;9.20;63.72
21988;BME280;11158;53.404;-1.510;2023-02-28T08:03:18;102533.47;;;8.94;62.71
21988;BME280;11158;53.404;-1.510;2023-02-28T08:05:44;102530.16;;;9.25;62.44
21988;BME280;11158;53.404;-1.510;2023-02-28T08:08:10;102527.88;;;9.09;63.57
21988;BME280;11158;53.404;-1.510;2023-02-28T08:10:36;102524.09;;;9.66;60.58
21988;BME280;11158;53.404;-1.510;2023-02-28T08:13:02;102534.53;;;9.26;61.99
21988;BME280;11158;53.404;-1.510;2023-02-28T08:15:28;102530.53;;;9.20;62.33
21988;BME280;11158;53.404;-1.510;2023-02-28T08:17:53;102528.47;;;9.99;60.30
21988;BME280;11158;53.404;-1.510;2023-02-28T08:20:22;102526.75;;;10.31;59.24
21988;BME280;11158;53.404;-1.510;2023-02-28T08:22:48;102529.06;;;9.27;60.59
21988;BME280;11158;53.404;-1.510;2023-02-28T08:25:14;102539.19;;;9.67;60.07
21988;BME280;11158;53.404;-1.510;2023-02-28T08:27:40;102536.06;;;9.51;61.01
21988;BME280;11158;53.404;-1.510;2023-02-28T08:30:06;102539.63;;;9.29;61.60
21988;BME280;11158;53.404;-1.510;2023-02-28T08:32:32;102530.31;;;8.89;63.03
21988;BME280;11158;53.404;-1.510;2023-02-28T08:34:58;102531.91;;;7.63;66.41
21988;BME280;11158;53.404;-1.510;2023-02-28T08:37:24;102533.81;;;8.67;64.01
21988;BME280;11158;53.404;-1.510;2023-02-28T08:39:51;102539.28;;;8.99;62.97
21988;BME280;11158;53.404;-1.510;2023-02-28T08:42:17;102542.41;;;9.05;62.40
21988;BME280;11158;53.404;-1.510;2023-02-28T08:44:42;102548.63;;;9.16;61.68
21988;BME280;11158;53.404;-1.510;2023-02-28T08:47:08;102551.78;;;9.10;61.82
21988;BME280;11158;53.404;-1.510;2023-02-28T08:49:33;102550.34;;;8.37;63.36
21988;BME280;11158;53.404;-1.510;2023-02-28T08:51:59;102551.63;;;10.10;59.35
21988;BME280;11158;53.404;-1.510;2023-02-28T08:54:25;102548.25;;;9.21;61.47
21988;BME280;11158;53.404;-1.510;2023-02-28T08:56:51;102539.50;;;9.41;60.21
21988;BME280;11158;53.404;-1.510;2023-02-28T08:59:17;102539.41;;;9.64;60.69
21988;BME280;11158;53.404;-1.510;2023-02-28T09:01:42;102545.38;;;10.42;58.46
21988;BME280;11158;53.404;-1.510;2023-02-28T09:04:09;102538.94;;;9.59;59.12
21988;BME280;11158;53.404;-1.510;2023-02-28T09:06:37;102554.38;;;7.83;64.69
21988;BME280;11158;53.404;-1.510;2023-02-28T09:09:02;102556.31;;;7.57;66.37
21988;BME280;11158;53.404;-1.510;2023-02-28T09:11:31;102559.88;;;8.28;65.44
21988;BME280;11158;53.404;-1.510;2023-02-28T09:13:57;102553.19;;;8.47;65.04
21988;BME280;11158;53.404;-1.510;2023-02-28T09:16:23;102554.31;;;8.89;64.32
21988;BME280;11158;53.404;-1.510;2023-02-28T09:18:49;102552.63;;;7.95;65.57
21988;BME280;11158;53.404;-1.510;2023-02-28T09:21:17;102550.88;;;9.43;61.22
21988;BME280;11158;53.404;-1.510;2023-02-28T09:23:46;102556.50;;;8.62;63.34
21988;BME280;11158;53.404;-1.510;2023-02-28T09:26:21;102555.53;;;9.30;62.28
21988;BME280;11158;53.404;-1.510;2023-02-28T09:28:47;102556.53;;;8.02;65.16
21988;BME280;11158;53.404;-1.510;2023-02-28T09:31:15;102559.97;;;9.30;61.80
21988;BME280;11158;53.404;-1.510;2023-02-28T09:33:41;102555.72;;;9.50;62.28
21988;BME280;11158;53.404;-1.510;2023-02-28T09:36:07;102565.47;;;9.39;62.18
21988;BME280;11158;53.404;-1.510;2023-02-28T09:38:32;102564.72;;;9.37;61.89
21988;BME280;11158;53.404;-1.510;2023-02-28T09:41:01;102568.00;;;9.30;63.05
21988;BME280;11158;53.404;-1.510;2023-02-28T09:43:34;102553.88;;;9.61;61.90
21988;BME280;11158;53.404;-1.510;2023-02-28T09:48:51;102565.53;;;9.93;60.01
21988;BME280;11158;53.404;-1.510;2023-02-28T09:54:17;102562.34;;;10.52;57.85
21988;BME280;11158;53.404;-1.510;2023-02-28T09:57:07;102555.19;;;10.32;58.36
21988;BME280;11158;53.404;-1.510;2023-02-28T10:00:05;102558.75;;;10.42;58.56
21988;BME280;11158;53.404;-1.510;2023-02-28T10:02:46;102569.66;;;8.16;64.15
21988;BME280;11158;53.404;-1.510;2023-02-28T10:05:28;102571.94;;;10.55;57.86
21988;BME280;11158;53.404;-1.510;2023-02-28T10:10:39;102575.34;;;9.71;60.50
21988;BME280;11158;53.404;-1.510;2023-02-28T10:16:02;102576.69;;;10.30;58.12
21988;BME280;11158;53.404;-1.510;2023-02-28T10:18:51;102576.69;;;10.51;57.41
21988;BME280;11158;53.404;-1.510;2023-02-28T10:21:21;102581.41;;;10.38;57.21
21988;BME280;11158;53.404;-1.510;2023-02-28T10:23:49;102578.78;;;9.94;57.88
21988;BME280;11158;53.404;-1.510;2023-02-28T10:26:20;102575.38;;;11.18;55.54
21988;BME280;11158;53.404;-1.510;2023-02-28T10:28:46;102575.88;;;10.18;56.83
21988;BME280;11158;53.404;-1.510;2023-02-28T10:31:18;102577.34;;;9.24;60.98
21988;BME280;11158;53.404;-1.510;2023-02-28T10:33:44;102574.06;;;10.82;56.44
21988;BME280;11158;53.404;-1.510;2023-02-28T10:36:14;102565.13;;;10.93;54.72
21988;BME280;11158;53.404;-1.510;2023-02-28T10:38:43;102574.91;;;8.76;60.63
21988;BME280;11158;53.404;-1.510;2023-02-28T10:41:16;102558.75;;;9.89;58.67
21988;BME280;11158;53.404;-1.510;2023-02-28T10:43:43;102557.00;;;11.64;53.76
21988;BME280;11158;53.404;-1.510;2023-02-28T10:46:18;102545.66;;;11.31;54.25
21988;BME280;11158;53.404;-1.510;2023-02-28T10:49:02;102552.13;;;11.28;54.44
21988;BME280;11158;53.404;-1.510;2023-02-28T10:51:35;102547.50;;;10.38;56.31
21988;BME280;11158;53.404;-1.510;2023-02-28T10:54:02;102550.25;;;10.79;54.52
21988;BME280;11158;53.404;-1.510;2023-02-28T10:56:28;102546.75;;;10.88;54.54
21988;BME280;11158;53.404;-1.510;2023-02-28T10:59:01;102544.47;;;11.04;53.97
21988;BME280;11158;53.404;-1.510;2023-02-28T11:01:40;102555.06;;;10.54;55.25
21988;BME280;11158;53.404;-1.510;2023-02-28T11:04:39;102545.03;;;11.18;54.73
21988;BME280;11158;53.404;-1.510;2023-02-28T11:07:17;102541.69;;;11.16;53.22
21988;BME280;11158;53.404;-1.510;2023-02-28T11:09:49;102535.88;;;11.10;53.91
21988;BME280;11158;53.404;-1.510;2023-02-28T11:14:59;102550.94;;;10.50;54.67
21988;BME280;11158;53.404;-1.510;2023-02-28T11:17:30;102552.59;;;11.43;52.97
21988;BME280;11158;53.404;-1.510;2023-02-28T11:20:07;102545.97;;;11.47;52.83
21988;BME280;11158;53.404;-1.510;2023-02-28T11:22:44;102541.25;;;12.00;51.02
21988;BME280;11158;53.404;-1.510;2023-02-28T11:25:29;102536.75;;;11.90;52.11
21988;BME280;11158;53.404;-1.510;2023-02-28T11:28:00;102542.16;;;11.40;52.61
21988;BME280;11158;53.404;-1.510;2023-02-28T11:30:39;102533.84;;;10.93;53.55
21988;BME280;11158;53.404;-1.510;2023-02-28T11:33:49;102528.09;;;11.48;52.76
21988;BME280;11158;53.404;-1.510;2023-02-28T11:36:28;102532.63;;;11.67;53.11
21988;BME280;11158;53.404;-1.510;2023-02-28T11:38:57;102532.88;;;10.63;54.86
21988;BME280;11158;53.404;-1.510;2023-02-28T11:46:51;102526.66;;;11.34;54.02
21988;BME280;11158;53.404;-1.510;2023-02-28T11:52:21;102510.63;;;10.42;55.36
21988;BME280;11158;53.404;-1.510;2023-02-28T12:05:46;102498.38;;;11.01;55.43
21988;BME280;11158;53.404;-1.510;2023-02-28T12:13:37;102479.03;;;11.67;53.37
21988;BME280;11158;53.404;-1.510;2023-02-28T12:21:41;102482.69;;;10.56;59.03
21988;BME280;11158;53.404;-1.510;2023-02-28T12:27:07;102485.72;;;10.41;59.28
21988;BME280;11158;53.404;-1.510;2023-02-28T12:29:40;102472.38;;;9.99;59.81
21988;BME280;11158;53.404;-1.510;2023-02-28T12:34:50;102466.69;;;10.14;59.14
21988;BME280;11158;53.404;-1.510;2023-02-28T12:37:21;102467.84;;;10.63;58.90
21988;BME280;11158;53.404;-1.510;2023-02-28T12:39:55;102453.53;;;11.53;55.76
21988;BME280;11158;53.404;-1.510;2023-02-28T12:42:29;102443.91;;;11.70;53.14
21988;BME280;11158;53.404;-1.510;2023-02-28T12:45:23;102451.41;;;11.76;54.10
21988;BME280;11158;53.404;-1.510;2023-02-28T12:47:54;102445.22;;;10.46;56.66
21988;BME280;11158;53.404;-1.510;2023-02-28T12:50:22;102446.75;;;9.43;60.62
21988;BME280;11158;53.404;-1.510;2023-02-28T12:52:58;102437.44;;;10.74;57.22
21988;BME280;11158;53.404;-1.510;2023-02-28T12:58:35;102434.31;;;9.65;61.40
21988;BME280;11158;53.404;-1.510;2023-02-28T13:01:20;102435.59;;;9.92;60.88
21988;BME280;11158;53.404;-1.510;2023-02-28T13:09:56;102426.09;;;10.51;59.30
21988;BME280;11158;53.404;-1.510;2023-02-28T13:12:23;102419.63;;;10.53;59.79
21988;BME280;11158;53.404;-1.510;2023-02-28T13:15:07;102415.28;;;10.00;60.16
21988;BME280;11158;53.404;-1.510;2023-02-28T13:17:39;102427.13;;;9.86;60.65
21988;BME280;11158;53.404;-1.510;2023-02-28T13:20:16;102423.25;;;10.21;60.91
21988;BME280;11158;53.404;-1.510;2023-02-28T13:22:49;102418.78;;;9.59;62.89
21988;BME280;11158;53.404;-1.510;2023-02-28T13:27:48;102425.78;;;8.95;66.57
21988;BME280;11158;53.404;-1.510;2023-02-28T13:46:27;102408.66;;;9.74;63.62
21988;BME280;11158;53.404;-1.510;2023-02-28T13:48:53;102402.88;;;9.36;64.32
21988;BME280;11158;53.404;-1.510;2023-02-28T13:51:48;102409.16;;;9.68;63.53
21988;BME280;11158;53.404;-1.510;2023-02-28T13:54:26;102403.03;;;8.91;65.37
21988;BME280;11158;53.404;-1.510;2023-02-28T13:57:02;102402.84;;;9.90;63.40
21988;BME280;11158;53.404;-1.510;2023-02-28T13:59:45;102407.44;;;9.46;64.77
21988;BME280;11158;53.404;-1.510;2023-02-28T14:07:53;102410.72;;;9.17;66.16
21988;BME280;11158;53.404;-1.510;2023-02-28T14:10:37;102396.25;;;9.52;64.90
21988;BME280;11158;53.404;-1.510;2023-02-28T14:16:00;102396.25;;;8.76;66.50
21988;BME280;11158;53.404;-1.510;2023-02-28T14:18:32;102396.63;;;8.26;68.12
21988;BME280;11158;53.404;-1.510;2023-02-28T14:21:31;102392.59;;;8.88;66.80
21988;BME280;11158;53.404;-1.510;2023-02-28T14:27:02;102404.72;;;8.02;69.42
21988;BME280;11158;53.404;-1.510;2023-02-28T14:34:55;102399.84;;;9.62;63.92
21988;BME280;11158;53.404;-1.510;2023-02-28T14:37:33;102395.13;;;10.38;62.17
21988;BME280;11158;53.404;-1.510;2023-02-28T14:40:02;102394.44;;;10.46;61.11
21988;BME280;11158;53.404;-1.510;2023-02-28T14:42:35;102397.09;;;10.46;61.09
21988;BME280;11158;53.404;-1.510;2023-02-28T14:45:01;102400.72;;;9.30;63.80
21988;BME280;11158;53.404;-1.510;2023-02-28T14:47:31;102398.88;;;8.98;65.41
21988;BME280;11158;53.404;-1.510;2023-02-28T14:49:59;102410.16;;;8.91;65.51
21988;BME280;11158;53.404;-1.510;2023-02-28T14:52:30;102399.31;;;9.15;65.41
21988;BME280;11158;53.404;-1.510;2023-02-28T14:55:06;102401.34;;;8.79;66.58
21988;BME280;11158;53.404;-1.510;2023-02-28T14:57:51;102405.22;;;8.30;68.06
21988;BME280;11158;53.404;-1.510;2023-02-28T15:00:25;102394.09;;;9.67;64.03
21988;BME280;11158;53.404;-1.510;2023-02-28T15:02:52;102384.38;;;8.80;66.05
21988;BME280;11158;53.404;-1.510;2023-02-28T15:08:17;102386.56;;;8.30;67.01
21988;BME280;11158;53.404;-1.510;2023-02-28T15:10:53;102374.09;;;9.19;65.09
21988;BME280;11158;53.404;-1.510;2023-02-28T15:13:20;102375.03;;;8.86;64.28
21988;BME280;11158;53.404;-1.510;2023-02-28T15:16:01;102366.41;;;8.93;64.75
21988;BME280;11158;53.404;-1.510;2023-02-28T15:18:35;102361.88;;;9.05;64.38
21988;BME280;11158;53.404;-1.510;2023-02-28T15:21:06;102361.63;;;8.53;65.54
21988;BME280;11158;53.404;-1.510;2023-02-28T15:23:34;102355.09;;;9.54;63.26